Terminal Aerodrome Forecast
Issued by NWS Charleston, WV

Current Version | Previous Version | Graphics & Text | Print | Product List | Glossary On
Versions: 1 2 3 4 5 6 7 8 9 10 11 12 13 14 15 16 17 18 19 20 21 22 23 24 25 26 27 28
000
FTUS41 KRLX 291700
TAFHTS
TAF
KHTS 291738Z 2918/3018 VRB03KT P6SM BKN015
     FM291900 30006KT P6SM BKN025
     FM292100 30004KT P6SM BKN035
     FM300400 00000KT 6SM BR BKN050
     FM300700 00000KT 3SM BR BKN050
     FM301100 00000KT 2SM BR SCT015
     FM301300 VRB03KT 3SM BR BKN015
     FM301400 27004KT 6SM BR BKN015
     FM301600 28005KT P6SM BKN025=

USA.gov is the U.S. government's official web portal to all federal, state and local government web resources and services.